Time;durP1;ratioP1;P1;durP2;ratioP2;P2;SDS_P1;SDS_P2;PMS_P1;PMS_P2;Temp;Humidity;BMP_temperature;BMP_pressure;BME280_temperature;BME280_humidity;BME280_pressure;Samples;Min_cycle;Max_cycle;Signal;HPM_P1;HPM_P2
2022/10/20 00:00:33;;;;;;;;;15.25;14.00;;;;;;;;5030747;27;8837;-81
2022/10/20 00:03:01;;;;;;;;;14.00;12.00;;;;;;;;5033964;27;8843;-82
2022/10/20 00:05:28;;;;;;;;;15.00;13.25;;;;;;;;5015109;27;8871;-80
2022/10/20 00:07:56;;;;;;;;;14.00;12.25;;;;;;;;5028092;27;8844;-81
2022/10/20 00:10:23;;;;;;;;;16.75;16.75;;;;;;;;5109094;27;8879;-81
2022/10/20 00:12:52;;;;;;;;;12.00;12.00;;;;;;;;5107276;27;8855;-81
2022/10/20 00:15:19;;;;;;;;;14.25;14.25;;;;;;;;5016690;28;9009;-81
2022/10/20 00:17:47;;;;;;;;;13.00;9.25;;;;;;;;5020919;28;8849;-81
2022/10/20 00:20:14;;;;;;;;;15.75;14.00;;;;;;;;5014489;28;8832;-81
2022/10/20 00:22:42;;;;;;;;;14.00;14.00;;;;;;;;5020660;28;8850;-81
2022/10/20 00:25:10;;;;;;;;;14.00;12.75;;;;;;;;5023504;28;9609;-81
2022/10/20 00:27:37;;;;;;;;;13.00;11.50;;;;;;;;5019506;28;8837;-81
2022/10/20 00:30:08;;;;;;;;;13.00;13.00;;;;;;;;5024938;28;8837;-81
2022/10/20 00:32:35;;;;;;;;;11.25;11.25;;;;;;;;5021697;28;8849;-81
2022/10/20 00:35:03;;;;;;;;;9.25;8.75;;;;;;;;5017845;28;8857;-83
2022/10/20 00:37:30;;;;;;;;;14.75;12.75;;;;;;;;5015031;28;10080;-81
2022/10/20 00:39:58;;;;;;;;;10.25;10.25;;;;;;;;5014334;28;8964;-82
2022/10/20 00:42:25;;;;;;;;;10.00;10.00;;;;;;;;5019923;28;8849;-82
2022/10/20 00:44:58;;;;;;;;;13.75;12.25;;;;;;;;5109682;27;8996;-81
2022/10/20 00:47:35;;;;;;;;;15.75;13.25;;;;;;;;5014294;28;8897;-82
2022/10/20 00:50:07;;;;;;;;;12.75;11.50;;;;;;;;5020717;27;8854;-82
2022/10/20 00:52:38;;;;;;;;;15.25;13.00;;;;;;;;5018397;27;8849;-82
2022/10/20 00:55:08;;;;;;;;;8.50;8.50;;;;;;;;5005107;28;8859;-81
2022/10/20 00:57:39;;;;;;;;;13.50;13.00;;;;;;;;5027590;28;8849;-81
2022/10/20 01:00:07;;;;;;;;;10.25;8.25;;;;;;;;5018998;28;8887;-81
2022/10/20 01:02:37;;;;;;;;;13.00;10.25;;;;;;;;5020329;28;8836;-81
2022/10/20 01:05:05;;;;;;;;;13.25;13.25;;;;;;;;5016540;27;8837;-81
2022/10/20 01:07:33;;;;;;;;;11.50;11.50;;;;;;;;5020943;28;8845;-82
2022/10/20 01:10:01;;;;;;;;;10.00;10.00;;;;;;;;5041419;27;8843;-82
2022/10/20 01:12:33;;;;;;;;;11.50;11.50;;;;;;;;5029326;27;8850;-82
2022/10/20 01:15:06;;;;;;;;;12.25;9.00;;;;;;;;5034867;27;8857;-81
2022/10/20 01:17:43;;;;;;;;;9.00;7.25;;;;;;;;5036891;27;8875;-81
2022/10/20 01:20:40;;;;;;;;;9.75;9.75;;;;;;;;5032311;27;8836;-82
2022/10/20 01:23:29;;;;;;;;;13.00;9.00;;;;;;;;5069435;27;8867;-79
2022/10/20 01:26:17;;;;;;;;;12.50;12.00;;;;;;;;5045421;27;8885;-80
2022/10/20 01:28:50;;;;;;;;;12.75;12.00;;;;;;;;5061010;27;8834;-81
2022/10/20 01:31:25;;;;;;;;;11.00;11.00;;;;;;;;5035153;27;8860;-81
2022/10/20 01:33:59;;;;;;;;;12.00;11.75;;;;;;;;5129842;27;8868;-81
2022/10/20 01:36:31;;;;;;;;;10.25;8.75;;;;;;;;5061586;27;8834;-82
2022/10/20 01:39:04;;;;;;;;;9.00;9.00;;;;;;;;5063414;27;8822;-81
2022/10/20 01:41:35;;;;;;;;;13.50;13.00;;;;;;;;5010055;28;8858;-81
2022/10/20 01:44:08;;;;;;;;;14.50;12.00;;;;;;;;5131463;27;8876;-81
2022/10/20 01:46:37;;;;;;;;;13.50;12.00;;;;;;;;5056042;27;8843;-81
2022/10/20 01:49:05;;;;;;;;;11.25;11.25;;;;;;;;5049539;27;8949;-80
2022/10/20 01:51:33;;;;;;;;;15.00;12.50;;;;;;;;5053488;27;8834;-81
2022/10/20 01:54:00;;;;;;;;;16.25;14.00;;;;;;;;5054956;27;9692;-82
2022/10/20 01:56:35;;;;;;;;;8.50;8.50;;;;;;;;5054055;27;8858;-81
2022/10/20 01:59:24;;;;;;;;;14.50;13.00;;;;;;;;5058983;27;9635;-82
2022/10/20 02:02:02;;;;;;;;;14.25;14.25;;;;;;;;5046376;27;8860;-82
2022/10/20 02:04:39;;;;;;;;;13.75;13.75;;;;;;;;5056679;27;8989;-81
2022/10/20 02:07:12;;;;;;;;;11.25;11.25;;;;;;;;5039775;27;8846;-81
2022/10/20 02:09:43;;;;;;;;;11.00;11.00;;;;;;;;5056216;27;8874;-82
2022/10/20 02:12:15;;;;;;;;;18.00;16.75;;;;;;;;5042098;27;8876;-81
2022/10/20 02:14:45;;;;;;;;;16.00;16.00;;;;;;;;5020787;28;8832;-81
2022/10/20 02:17:15;;;;;;;;;17.50;14.75;;;;;;;;5020809;28;8838;-81
2022/10/20 02:19:44;;;;;;;;;14.00;14.00;;;;;;;;5019777;28;8885;-81
2022/10/20 02:22:14;;;;;;;;;13.25;13.25;;;;;;;;5019572;27;8845;-81
2022/10/20 02:24:44;;;;;;;;;8.00;8.00;;;;;;;;5020416;27;8851;-81
2022/10/20 02:27:15;;;;;;;;;13.00;13.00;;;;;;;;5024108;27;8851;-81
2022/10/20 02:29:47;;;;;;;;;12.00;12.00;;;;;;;;5028115;28;8860;-82
2022/10/20 02:32:16;;;;;;;;;12.50;12.50;;;;;;;;5014459;28;8865;-82
2022/10/20 02:34:44;;;;;;;;;15.75;14.00;;;;;;;;5022122;28;9614;-82
2022/10/20 02:37:13;;;;;;;;;15.50;15.50;;;;;;;;5008860;28;8824;-81
2022/10/20 02:39:40;;;;;;;;;16.00;15.75;;;;;;;;5022557;28;8952;-81
2022/10/20 02:42:10;;;;;;;;;17.00;15.25;;;;;;;;5037315;28;8899;-81
2022/10/20 02:44:38;;;;;;;;;14.00;12.75;;;;;;;;5021562;28;8885;-81
2022/10/20 02:47:07;;;;;;;;;12.75;12.75;;;;;;;;5022908;28;8840;-81
2022/10/20 02:49:34;;;;;;;;;13.50;13.50;;;;;;;;5013239;28;8878;-81
2022/10/20 02:52:02;;;;;;;;;16.75;12.50;;;;;;;;5023034;28;8852;-82
2022/10/20 02:54:29;;;;;;;;;13.75;13.75;;;;;;;;5015718;28;8878;-81
2022/10/20 02:56:57;;;;;;;;;9.00;9.00;;;;;;;;5110688;27;8838;-83
2022/10/20 02:59:24;;;;;;;;;14.00;12.50;;;;;;;;5022832;27;8879;-82
2022/10/20 03:01:52;;;;;;;;;15.75;14.25;;;;;;;;5019893;28;9610;-82
2022/10/20 03:04:21;;;;;;;;;18.25;14.50;;;;;;;;5022983;28;8878;-81
2022/10/20 03:06:51;;;;;;;;;16.50;15.00;;;;;;;;5032543;27;9709;-82
2022/10/20 03:09:21;;;;;;;;;12.75;12.25;;;;;;;;5021986;28;9693;-82
2022/10/20 03:11:49;;;;;;;;;15.25;13.50;;;;;;;;5065953;27;8842;-82
2022/10/20 03:14:17;;;;;;;;;14.50;13.00;;;;;;;;5122664;27;8855;-81
2022/10/20 03:16:44;;;;;;;;;15.00;15.00;;;;;;;;5105043;27;8873;-81
2022/10/20 03:19:12;;;;;;;;;14.00;12.75;;;;;;;;5107774;27;8834;-81
2022/10/20 03:21:41;;;;;;;;;13.25;12.50;;;;;;;;5091752;27;8964;-80
2022/10/20 03:24:08;;;;;;;;;13.75;13.75;;;;;;;;5123551;27;8964;-80
2022/10/20 03:26:36;;;;;;;;;17.00;17.00;;;;;;;;5104923;27;9239;-82
2022/10/20 03:29:04;;;;;;;;;16.00;15.25;;;;;;;;5104750;27;8831;-81
2022/10/20 03:31:31;;;;;;;;;15.00;13.00;;;;;;;;5126644;27;8872;-82
2022/10/20 03:33:59;;;;;;;;;14.00;12.00;;;;;;;;5121952;27;8837;-82
2022/10/20 03:36:27;;;;;;;;;14.25;12.25;;;;;;;;5110598;27;8838;-82
2022/10/20 03:38:55;;;;;;;;;14.25;14.25;;;;;;;;5126357;27;8842;-82
2022/10/20 03:41:23;;;;;;;;;14.00;13.25;;;;;;;;5092069;27;8852;-81
2022/10/20 03:43:50;;;;;;;;;13.25;13.25;;;;;;;;5092883;27;8878;-81
2022/10/20 03:46:18;;;;;;;;;14.50;14.50;;;;;;;;5108801;27;8932;-81
2022/10/20 03:48:47;;;;;;;;;11.25;11.25;;;;;;;;5123651;27;8957;-81
2022/10/20 03:51:15;;;;;;;;;12.75;12.75;;;;;;;;5113228;27;8855;-82
2022/10/20 03:53:43;;;;;;;;;15.00;13.00;;;;;;;;5130525;27;8838;-82
2022/10/20 03:56:17;;;;;;;;;14.25;14.25;;;;;;;;5125465;27;8850;-81
2022/10/20 03:58:44;;;;;;;;;12.75;12.75;;;;;;;;5131387;27;8899;-82
2022/10/20 04:01:14;;;;;;;;;12.00;12.00;;;;;;;;5107055;27;8904;-82
2022/10/20 04:03:43;;;;;;;;;18.25;14.25;;;;;;;;5126324;27;8880;-84
2022/10/20 04:06:11;;;;;;;;;15.75;12.50;;;;;;;;5109368;27;8838;-84
2022/10/20 04:08:39;;;;;;;;;12.25;12.25;;;;;;;;5127511;27;8938;-82
2022/10/20 04:11:07;;;;;;;;;12.25;12.25;;;;;;;;5098575;27;8889;-82
2022/10/20 04:13:36;;;;;;;;;15.00;15.00;;;;;;;;5024440;28;8869;-82
2022/10/20 04:16:04;;;;;;;;;11.25;8.00;;;;;;;;5027269;27;8849;-84
2022/10/20 04:18:31;;;;;;;;;13.25;11.25;;;;;;;;5030840;27;8882;-84
2022/10/20 04:20:58;;;;;;;;;14.50;14.50;;;;;;;;5018115;28;9647;-83
2022/10/20 04:23:26;;;;;;;;;14.75;12.75;;;;;;;;5029695;27;8827;-83
2022/10/20 04:25:54;;;;;;;;;15.00;13.25;;;;;;;;5032093;27;8853;-82
2022/10/20 04:28:21;;;;;;;;;14.75;13.00;;;;;;;;5035846;27;8850;-83
2022/10/20 04:30:50;;;;;;;;;15.75;14.50;;;;;;;;5036865;27;9637;-83
2022/10/20 04:33:18;;;;;;;;;14.00;13.50;;;;;;;;5030754;27;8861;-83
2022/10/20 04:35:46;;;;;;;;;14.50;14.50;;;;;;;;5038877;27;8845;-83
2022/10/20 04:38:14;;;;;;;;;13.00;12.50;;;;;;;;5022626;27;8845;-82
2022/10/20 04:40:41;;;;;;;;;14.75;13.75;;;;;;;;5024148;27;8849;-81
2022/10/20 04:43:09;;;;;;;;;14.50;14.50;;;;;;;;5049180;27;8868;-83
2022/10/20 04:45:37;;;;;;;;;13.67;13.00;;;;;;;;5035342;27;8867;-82
2022/10/20 04:48:07;;;;;;;;;12.00;12.00;;;;;;;;5024723;27;8834;-82
2022/10/20 04:50:35;;;;;;;;;14.50;14.50;;;;;;;;5038185;27;8882;-82
2022/10/20 04:53:02;;;;;;;;;9.75;8.00;;;;;;;;5028245;28;8855;-82
2022/10/20 04:55:30;;;;;;;;;14.75;13.25;;;;;;;;5020935;28;8925;-83
2022/10/20 04:57:57;;;;;;;;;9.50;9.50;;;;;;;;5037745;28;8977;-83
2022/10/20 05:00:25;;;;;;;;;12.50;12.50;;;;;;;;5034204;28;8851;-83
2022/10/20 05:02:53;;;;;;;;;13.50;12.25;;;;;;;;5028722;28;8871;-82
2022/10/20 05:05:22;;;;;;;;;14.00;11.50;;;;;;;;5029827;27;8849;-84
2022/10/20 05:07:49;;;;;;;;;15.67;13.33;;;;;;;;5030575;28;8857;-84
2022/10/20 05:10:18;;;;;;;;;18.00;14.25;;;;;;;;5046108;27;8827;-83
2022/10/20 05:12:45;;;;;;;;;14.00;14.00;;;;;;;;5047133;27;8930;-83
2022/10/20 05:15:12;;;;;;;;;15.75;13.50;;;;;;;;5031819;27;8986;-82
2022/10/20 05:17:40;;;;;;;;;13.75;11.75;;;;;;;;5023231;28;8946;-83
2022/10/20 05:20:09;;;;;;;;;9.00;9.00;;;;;;;;5017603;27;8919;-83
2022/10/20 05:23:07;;;;;;;;;10.00;10.00;;;;;;;;5050238;27;8875;-84
2022/10/20 05:25:37;;;;;;;;;12.75;11.75;;;;;;;;5019033;28;8990;-83
2022/10/20 05:28:06;;;;;;;;;9.50;9.50;;;;;;;;5005839;28;8909;-84
2022/10/20 05:30:35;;;;;;;;;12.75;12.75;;;;;;;;5023654;27;8832;-84
2022/10/20 05:33:05;;;;;;;;;12.00;12.00;;;;;;;;5031532;28;8856;-80
2022/10/20 05:35:33;;;;;;;;;11.00;7.00;;;;;;;;5034519;28;8872;-82
2022/10/20 05:38:09;;;;;;;;;14.25;11.25;;;;;;;;5014144;28;8876;-84
2022/10/20 05:40:47;;;;;;;;;11.00;11.00;;;;;;;;5006527;28;8964;-84
2022/10/20 05:43:15;;;;;;;;;10.75;10.75;;;;;;;;5036135;27;8863;-84
2022/10/20 05:45:42;;;;;;;;;12.50;11.00;;;;;;;;4993483;28;8871;-75
2022/10/20 05:48:10;;;;;;;;;12.75;12.00;;;;;;;;5011883;28;8840;-76
2022/10/20 05:50:40;;;;;;;;;11.50;11.50;;;;;;;;5019266;28;9643;-77
2022/10/20 05:53:11;;;;;;;;;15.50;13.50;;;;;;;;5022620;27;8868;-78
2022/10/20 05:55:40;;;;;;;;;13.75;10.75;;;;;;;;5032497;27;8849;-77
2022/10/20 05:58:07;;;;;;;;;11.00;11.00;;;;;;;;5036859;27;8916;-78
2022/10/20 06:00:40;;;;;;;;;12.00;12.00;;;;;;;;5012462;28;8846;-77
2022/10/20 06:03:07;;;;;;;;;16.00;11.00;;;;;;;;5025067;27;8837;-79
2022/10/20 06:05:35;;;;;;;;;13.25;13.25;;;;;;;;5021260;27;8975;-78
2022/10/20 06:08:02;;;;;;;;;15.50;15.50;;;;;;;;5020388;27;8931;-77
2022/10/20 06:10:32;;;;;;;;;12.75;11.50;;;;;;;;5025189;27;8845;-77
2022/10/20 06:13:01;;;;;;;;;16.00;15.00;;;;;;;;5102212;27;8838;-77
2022/10/20 06:15:31;;;;;;;;;11.75;11.75;;;;;;;;5123994;27;8838;-77
2022/10/20 06:17:59;;;;;;;;;12.50;12.50;;;;;;;;5128073;27;8967;-77
2022/10/20 06:20:26;;;;;;;;;18.25;16.00;;;;;;;;5123665;27;8865;-76
2022/10/20 06:22:54;;;;;;;;;13.75;13.75;;;;;;;;5125304;27;8848;-76
2022/10/20 06:25:22;;;;;;;;;17.25;14.00;;;;;;;;5103821;27;8867;-77
2022/10/20 06:27:51;;;;;;;;;14.00;9.50;;;;;;;;5125154;27;8852;-77
2022/10/20 06:30:19;;;;;;;;;15.50;15.25;;;;;;;;5105060;27;10827;-75
2022/10/20 06:32:54;;;;;;;;;15.75;14.75;;;;;;;;5103622;27;8881;-75
2022/10/20 06:35:21;;;;;;;;;17.00;13.50;;;;;;;;5121010;27;8839;-74
2022/10/20 06:37:49;;;;;;;;;14.50;13.25;;;;;;;;5121820;27;8826;-78
2022/10/20 06:40:19;;;;;;;;;13.25;13.00;;;;;;;;5122955;27;8834;-72
2022/10/20 06:42:47;;;;;;;;;18.00;15.50;;;;;;;;5088590;27;8830;-75
2022/10/20 06:45:16;;;;;;;;;15.25;15.00;;;;;;;;5125065;27;8853;-75
2022/10/20 06:47:43;;;;;;;;;15.50;15.50;;;;;;;;5099583;27;8835;-75
2022/10/20 06:50:11;;;;;;;;;16.50;16.50;;;;;;;;5122316;27;8776;-75
2022/10/20 06:52:38;;;;;;;;;16.75;16.75;;;;;;;;5105453;27;8862;-74
2022/10/20 06:55:07;;;;;;;;;15.00;13.25;;;;;;;;5125021;27;8851;-74
2022/10/20 06:57:34;;;;;;;;;13.75;13.75;;;;;;;;5104471;27;8848;-74
2022/10/20 07:00:02;;;;;;;;;17.00;14.75;;;;;;;;5121539;27;8869;-74
2022/10/20 07:02:31;;;;;;;;;19.00;17.75;;;;;;;;5125508;27;8923;-74
2022/10/20 07:05:00;;;;;;;;;14.75;14.75;;;;;;;;5106676;27;8986;-73
2022/10/20 07:07:27;;;;;;;;;13.75;9.75;;;;;;;;5118705;27;8972;-72
2022/10/20 07:09:55;;;;;;;;;16.25;16.25;;;;;;;;5102962;27;8846;-73
2022/10/20 07:12:22;;;;;;;;;15.25;14.00;;;;;;;;5061317;27;8856;-74
2022/10/20 07:14:50;;;;;;;;;15.50;15.50;;;;;;;;5101615;27;8832;-74
2022/10/20 07:17:17;;;;;;;;;15.25;14.75;;;;;;;;5037407;28;8840;-74
2022/10/20 07:19:46;;;;;;;;;13.25;13.25;;;;;;;;5024878;27;9621;-74
2022/10/20 07:22:14;;;;;;;;;18.50;15.75;;;;;;;;5030609;27;8857;-74
2022/10/20 07:24:41;;;;;;;;;14.25;14.00;;;;;;;;5003949;28;8829;-74
2022/10/20 07:27:12;;;;;;;;;9.50;9.50;;;;;;;;5018122;28;8825;-73
2022/10/20 07:29:39;;;;;;;;;10.00;10.00;;;;;;;;5027605;27;8837;-73
2022/10/20 07:32:07;;;;;;;;;19.25;16.00;;;;;;;;5003396;28;9659;-75
2022/10/20 07:34:34;;;;;;;;;15.75;14.00;;;;;;;;5027013;27;8889;-74
2022/10/20 07:37:05;;;;;;;;;13.00;10.75;;;;;;;;5018771;28;8927;-74
2022/10/20 07:39:32;;;;;;;;;11.25;11.25;;;;;;;;5021700;27;8864;-75
2022/10/20 07:41:59;;;;;;;;;14.50;13.00;;;;;;;;5042421;27;8829;-77
2022/10/20 07:44:27;;;;;;;;;14.50;14.00;;;;;;;;5004333;28;8837;-75
2022/10/20 07:46:54;;;;;;;;;21.75;18.50;;;;;;;;5026757;27;8859;-76
2022/10/20 07:49:22;;;;;;;;;17.00;17.00;;;;;;;;4988585;28;8860;-75
2022/10/20 07:51:49;;;;;;;;;15.25;15.25;;;;;;;;5026122;27;8985;-77
2022/10/20 07:54:19;;;;;;;;;10.00;9.75;;;;;;;;5018286;27;8960;-76
2022/10/20 07:56:46;;;;;;;;;15.00;12.75;;;;;;;;5023969;27;8856;-77
2022/10/20 07:59:15;;;;;;;;;15.00;11.00;;;;;;;;4998940;27;8871;-81
2022/10/20 08:01:43;;;;;;;;;11.75;11.75;;;;;;;;5030529;27;8849;-76
2022/10/20 08:04:10;;;;;;;;;13.50;11.25;;;;;;;;5019492;27;8880;-76
2022/10/20 08:06:38;;;;;;;;;14.25;14.25;;;;;;;;5039020;27;8844;-76
2022/10/20 08:09:06;;;;;;;;;14.75;11.25;;;;;;;;5017633;27;8844;-75
2022/10/20 08:11:34;;;;;;;;;10.75;10.75;;;;;;;;5011082;28;8974;-77
2022/10/20 08:14:03;;;;;;;;;11.75;10.25;;;;;;;;5020159;28;8958;-75
2022/10/20 08:16:31;;;;;;;;;10.75;10.00;;;;;;;;5035215;27;8851;-77
2022/10/20 08:18:58;;;;;;;;;17.00;14.00;;;;;;;;5108286;27;9021;-77
2022/10/20 08:21:26;;;;;;;;;13.25;13.25;;;;;;;;5057709;27;8857;-77
2022/10/20 08:23:53;;;;;;;;;8.75;8.75;;;;;;;;5029737;28;8843;-77
2022/10/20 08:26:22;;;;;;;;;15.75;14.25;;;;;;;;5019609;28;8843;-77
2022/10/20 08:28:53;;;;;;;;;13.50;13.50;;;;;;;;5033942;27;9258;-76
2022/10/20 08:31:22;;;;;;;;;13.25;12.50;;;;;;;;5041229;27;8846;-77
2022/10/20 08:33:49;;;;;;;;;12.75;12.75;;;;;;;;5021380;27;9684;-77
2022/10/20 08:36:16;;;;;;;;;8.50;8.50;;;;;;;;5029875;27;9645;-77
2022/10/20 08:38:44;;;;;;;;;9.75;8.25;;;;;;;;5028677;27;8932;-76
2022/10/20 08:41:18;;;;;;;;;8.50;8.50;;;;;;;;5033608;27;8842;-76
2022/10/20 08:43:47;;;;;;;;;13.50;11.50;;;;;;;;5023965;27;8898;-76
2022/10/20 08:46:18;;;;;;;;;9.00;7.50;;;;;;;;5020854;28;8867;-77
2022/10/20 08:48:47;;;;;;;;;9.50;7.75;;;;;;;;5026056;27;8834;-76
2022/10/20 08:51:19;;;;;;;;;9.50;8.75;;;;;;;;5040187;27;9610;-76
2022/10/20 08:53:48;;;;;;;;;8.00;6.00;;;;;;;;5029104;27;8856;-76
2022/10/20 08:56:16;;;;;;;;;5.00;5.00;;;;;;;;5018915;27;8832;-76
2022/10/20 08:58:45;;;;;;;;;7.20;5.60;;;;;;;;5045674;28;8856;-76
2022/10/20 09:01:21;;;;;;;;;5.60;5.60;;;;;;;;5049638;27;8829;-76
2022/10/20 09:03:52;;;;;;;;;8.00;8.00;;;;;;;;5037329;28;8865;-76
2022/10/20 09:06:20;;;;;;;;;5.00;5.00;;;;;;;;5024157;28;8845;-76
2022/10/20 09:08:48;;;;;;;;;7.40;7.00;;;;;;;;5042278;27;8900;-75
2022/10/20 09:11:17;;;;;;;;;4.00;4.00;;;;;;;;5034322;27;8831;-75
2022/10/20 09:13:45;;;;;;;;;6.00;6.00;;;;;;;;5045456;27;8828;-75
2022/10/20 09:16:25;;;;;;;;;5.60;5.20;;;;;;;;5049118;27;8954;-75
2022/10/20 09:18:57;;;;;;;;;5.20;4.20;;;;;;;;5040214;27;8845;-75
2022/10/20 09:21:25;;;;;;;;;6.20;6.20;;;;;;;;5043685;27;8824;-75
2022/10/20 09:23:55;;;;;;;;;7.80;6.00;;;;;;;;5044482;27;8853;-76
2022/10/20 09:26:32;;;;;;;;;6.40;4.80;;;;;;;;5042697;27;8854;-76
2022/10/20 09:29:05;;;;;;;;;9.40;7.00;;;;;;;;5050023;27;8812;-76
2022/10/20 09:31:34;;;;;;;;;5.80;5.80;;;;;;;;5057653;27;8849;-76
2022/10/20 09:34:19;;;;;;;;;6.40;4.60;;;;;;;;5049547;27;9587;-76
2022/10/20 09:36:47;;;;;;;;;5.00;4.80;;;;;;;;5057014;27;8946;-76
2022/10/20 09:39:19;;;;;;;;;4.00;4.00;;;;;;;;5058477;27;8851;-78
2022/10/20 09:41:46;;;;;;;;;2.40;2.40;;;;;;;;5043617;27;8860;-76
2022/10/20 09:44:22;;;;;;;;;5.20;4.00;;;;;;;;5057991;27;8880;-76
2022/10/20 09:46:52;;;;;;;;;4.20;4.20;;;;;;;;5039511;27;8896;-77
2022/10/20 09:49:28;;;;;;;;;2.00;2.00;;;;;;;;5064607;27;8830;-77
2022/10/20 09:51:56;;;;;;;;;2.00;2.00;;;;;;;;5068674;27;8948;-75
2022/10/20 09:54:25;;;;;;;;;3.20;3.20;;;;;;;;5066324;27;8851;-75
2022/10/20 09:56:53;;;;;;;;;2.80;2.80;;;;;;;;5074944;27;8832;-75
2022/10/20 09:59:22;;;;;;;;;2.80;2.80;;;;;;;;5058535;27;8890;-72
2022/10/20 10:01:55;;;;;;;;;3.20;3.20;;;;;;;;5050466;27;8826;-75
2022/10/20 10:04:35;;;;;;;;;3.60;3.60;;;;;;;;5048704;27;8870;-74
2022/10/20 10:07:03;;;;;;;;;4.80;4.80;;;;;;;;5063802;27;8891;-76
2022/10/20 10:09:33;;;;;;;;;4.60;4.60;;;;;;;;5045600;27;8990;-77
2022/10/20 10:12:03;;;;;;;;;6.40;4.60;;;;;;;;5090866;27;8828;-76
2022/10/20 10:14:33;;;;;;;;;2.20;2.20;;;;;;;;5113087;27;8849;-76
2022/10/20 10:17:01;;;;;;;;;4.20;4.20;;;;;;;;5125942;27;8829;-75
2022/10/20 10:19:30;;;;;;;;;4.00;4.00;;;;;;;;5124265;27;8962;-75
2022/10/20 10:22:01;;;;;;;;;5.60;3.80;;;;;;;;5124611;27;8934;-74
2022/10/20 10:24:44;;;;;;;;;3.00;3.00;;;;;;;;5122582;27;8880;-75
2022/10/20 10:27:25;;;;;;;;;3.40;3.40;;;;;;;;5123609;27;8846;-75
2022/10/20 10:29:53;;;;;;;;;6.00;2.80;;;;;;;;5121931;27;8838;-76
2022/10/20 10:32:25;;;;;;;;;2.60;2.60;;;;;;;;5129472;27;8973;-76
2022/10/20 10:35:13;;;;;;;;;1.20;1.20;;;;;;;;5128771;27;9584;-76
2022/10/20 10:37:44;;;;;;;;;3.00;2.40;;;;;;;;5125219;27;8968;-75
2022/10/20 10:40:17;;;;;;;;;4.00;3.00;;;;;;;;5108700;27;8885;-76
2022/10/20 10:42:56;;;;;;;;;2.00;2.00;;;;;;;;5107977;27;8986;-76
2022/10/20 10:45:42;;;;;;;;;2.20;2.20;;;;;;;;5105810;27;9111;-76
2022/10/20 10:48:25;;;;;;;;;3.80;2.00;;;;;;;;5123948;27;8838;-76
2022/10/20 10:50:57;;;;;;;;;1.00;1.00;;;;;;;;5111302;27;8837;-76
2022/10/20 10:53:37;;;;;;;;;1.80;1.40;;;;;;;;5124687;27;8834;-77
2022/10/20 10:56:13;;;;;;;;;1.00;1.00;;;;;;;;5118595;27;8814;-77
2022/10/20 10:58:47;;;;;;;;;1.20;1.20;;;;;;;;5121420;27;8843;-76
2022/10/20 11:01:34;;;;;;;;;1.40;1.20;;;;;;;;5107267;27;8926;-77
2022/10/20 11:04:35;;;;;;;;;1.40;1.40;;;;;;;;5122691;27;8894;-75
2022/10/20 11:07:06;;;;;;;;;1.60;1.60;;;;;;;;5119680;27;8857;-77
2022/10/20 11:09:42;;;;;;;;;1.00;1.00;;;;;;;;5123431;27;9667;-76
2022/10/20 11:12:32;;;;;;;;;1.60;1.60;;;;;;;;5097418;27;8851;-76
2022/10/20 11:15:08;;;;;;;;;1.00;1.00;;;;;;;;5039684;27;9652;-77
2022/10/20 11:17:48;;;;;;;;;1.00;1.00;;;;;;;;5116437;27;9074;-77
2022/10/20 11:20:24;;;;;;;;;2.20;1.00;;;;;;;;5033128;27;8847;-77
2022/10/20 11:23:02;;;;;;;;;2.60;1.80;;;;;;;;5024725;27;8860;-76
2022/10/20 11:25:38;;;;;;;;;2.60;1.80;;;;;;;;5040967;27;8873;-77
2022/10/20 11:28:23;;;;;;;;;1.20;1.20;;;;;;;;5037572;28;8831;-76
2022/10/20 11:30:51;;;;;;;;;1.00;1.00;;;;;;;;5026893;27;8886;-76
2022/10/20 11:33:22;;;;;;;;;1.20;1.20;;;;;;;;5087384;28;8934;-76
2022/10/20 11:35:54;;;;;;;;;0.00;0.00;;;;;;;;5086201;28;8965;-75
2022/10/20 11:38:25;;;;;;;;;1.60;0.40;;;;;;;;5035332;27;8866;-76
2022/10/20 11:41:00;;;;;;;;;3.20;1.00;;;;;;;;5078756;28;8861;-76
2022/10/20 11:43:33;;;;;;;;;2.60;2.60;;;;;;;;5096815;27;9302;-76
2022/10/20 11:46:05;;;;;;;;;1.00;1.00;;;;;;;;5069970;28;8843;-76
2022/10/20 11:48:36;;;;;;;;;0.80;0.80;;;;;;;;5086355;28;8916;-76
2022/10/20 11:51:39;;;;;;;;;3.00;1.20;;;;;;;;5020697;27;8850;-76
2022/10/20 11:54:27;;;;;;;;;1.00;1.00;;;;;;;;5023498;27;8859;-76
2022/10/20 11:57:13;;;;;;;;;1.00;1.00;;;;;;;;5027002;27;8838;-76
2022/10/20 12:00:04;;;;;;;;;1.00;1.00;;;;;;;;5021758;28;8964;-77
2022/10/20 12:02:59;;;;;;;;;1.00;1.00;;;;;;;;5032966;27;8858;-77
2022/10/20 12:05:56;;;;;;;;;0.80;0.80;;;;;;;;5026882;28;8997;-77
2022/10/20 12:08:36;;;;;;;;;2.00;0.60;;;;;;;;5027574;27;8858;-77
2022/10/20 12:11:09;;;;;;;;;2.00;2.00;;;;;;;;5028584;27;8868;-78
2022/10/20 12:13:44;;;;;;;;;0.60;0.20;;;;;;;;5031027;27;8836;-78
2022/10/20 12:16:12;;;;;;;;;1.00;1.00;;;;;;;;5024541;27;8848;-77
2022/10/20 12:18:39;;;;;;;;;0.80;0.80;;;;;;;;5022368;27;8901;-78
2022/10/20 12:21:08;;;;;;;;;1.40;1.40;;;;;;;;5013681;28;9660;-77
2022/10/20 12:24:04;;;;;;;;;0.00;0.00;;;;;;;;5021928;28;8976;-77
2022/10/20 12:27:10;;;;;;;;;0.00;0.00;;;;;;;;5021583;27;9012;-77
2022/10/20 12:30:04;;;;;;;;;0.80;0.80;;;;;;;;5025435;27;8936;-76
2022/10/20 12:32:53;;;;;;;;;0.80;0.80;;;;;;;;5024014;28;9657;-78
2022/10/20 12:35:53;;;;;;;;;1.00;0.80;;;;;;;;5017921;28;9689;-78
2022/10/20 12:38:23;;;;;;;;;1.00;0.00;;;;;;;;5016528;27;8869;-77
2022/10/20 12:40:56;;;;;;;;;1.60;0.80;;;;;;;;5017039;28;9319;-78
2022/10/20 12:43:27;;;;;;;;;1.00;1.00;;;;;;;;5022244;28;8840;-76
2022/10/20 12:46:03;;;;;;;;;0.20;0.20;;;;;;;;5020104;27;8859;-74
2022/10/20 12:48:35;;;;;;;;;0.80;0.80;;;;;;;;5014605;28;8859;-74
2022/10/20 12:51:08;;;;;;;;;1.00;1.00;;;;;;;;5037010;27;8848;-72
2022/10/20 12:53:36;;;;;;;;;0.00;0.00;;;;;;;;4994881;28;8836;-71
2022/10/20 12:56:08;;;;;;;;;1.20;0.40;;;;;;;;5025362;27;8872;-72
2022/10/20 12:58:37;;;;;;;;;0.00;0.00;;;;;;;;5016803;28;8844;-73
2022/10/20 13:01:11;;;;;;;;;0.20;0.20;;;;;;;;5020942;28;8836;-80
2022/10/20 13:03:42;;;;;;;;;0.00;0.00;;;;;;;;5016552;28;8856;-76
2022/10/20 13:06:42;;;;;;;;;0.80;0.80;;;;;;;;5012897;28;9277;-76
2022/10/20 13:09:27;;;;;;;;;0.00;0.00;;;;;;;;5023628;27;8854;-75
2022/10/20 13:11:57;;;;;;;;;0.00;0.00;;;;;;;;5031297;27;9970;-74
2022/10/20 13:14:36;;;;;;;;;0.20;0.20;;;;;;;;5017190;28;8815;-75
2022/10/20 13:17:18;;;;;;;;;0.00;0.00;;;;;;;;5027000;27;8887;-76
2022/10/20 13:19:53;;;;;;;;;0.00;0.00;;;;;;;;5014294;28;8954;-74
2022/10/20 13:22:36;;;;;;;;;0.00;0.00;;;;;;;;5017940;27;8872;-80
2022/10/20 13:25:06;;;;;;;;;0.60;0.60;;;;;;;;5023322;27;8874;-75
2022/10/20 13:27:33;;;;;;;;;1.80;0.00;;;;;;;;5036271;27;8860;-75
2022/10/20 13:30:00;;;;;;;;;0.00;0.00;;;;;;;;5038251;27;8860;-75
2022/10/20 13:32:36;;;;;;;;;0.00;0.00;;;;;;;;5039895;27;9029;-74
2022/10/20 13:35:09;;;;;;;;;0.00;0.00;;;;;;;;5038753;27;8842;-75
2022/10/20 13:37:48;;;;;;;;;1.60;0.00;;;;;;;;5013204;27;8902;-74
2022/10/20 13:40:22;;;;;;;;;0.00;0.00;;;;;;;;5030322;27;8848;-74
2022/10/20 13:42:58;;;;;;;;;0.00;0.00;;;;;;;;5037866;27;8870;-73
2022/10/20 13:45:34;;;;;;;;;0.00;0.00;;;;;;;;5030046;28;8875;-73
2022/10/20 13:48:13;;;;;;;;;0.00;0.00;;;;;;;;5031940;27;8894;-74
2022/10/20 13:50:43;;;;;;;;;1.00;1.00;;;;;;;;5046410;27;8855;-74
2022/10/20 13:53:19;;;;;;;;;0.00;0.00;;;;;;;;5037065;27;8844;-73
2022/10/20 13:56:00;;;;;;;;;0.80;0.00;;;;;;;;5036946;27;8878;-74
2022/10/20 13:58:30;;;;;;;;;1.80;0.80;;;;;;;;5032937;27;8859;-74
2022/10/20 14:01:02;;;;;;;;;0.40;0.40;;;;;;;;5020298;28;8871;-75
2022/10/20 14:03:35;;;;;;;;;1.00;1.00;;;;;;;;5043714;27;8837;-74
2022/10/20 14:06:02;;;;;;;;;0.80;0.80;;;;;;;;5033314;27;8879;-75
2022/10/20 14:08:30;;;;;;;;;1.60;0.00;;;;;;;;5025504;27;8822;-73
2022/10/20 14:10:59;;;;;;;;;0.80;0.20;;;;;;;;5105295;27;8845;-74
2022/10/20 14:13:30;;;;;;;;;0.80;0.80;;;;;;;;5089195;27;8856;-75
2022/10/20 14:15:59;;;;;;;;;1.80;1.00;;;;;;;;5049752;27;8948;-74
2022/10/20 14:18:31;;;;;;;;;0.00;0.00;;;;;;;;5044840;27;8855;-74
2022/10/20 14:21:02;;;;;;;;;1.00;1.00;;;;;;;;5058073;27;8843;-73
2022/10/20 14:23:34;;;;;;;;;0.00;0.00;;;;;;;;5058046;27;8861;-75
2022/10/20 14:26:03;;;;;;;;;2.00;0.60;;;;;;;;5043725;27;8953;-75
2022/10/20 14:28:33;;;;;;;;;1.40;0.80;;;;;;;;5050810;27;8820;-75
2022/10/20 14:31:03;;;;;;;;;0.40;0.40;;;;;;;;5024938;28;8828;-75
2022/10/20 14:33:31;;;;;;;;;0.20;0.20;;;;;;;;5060976;27;8816;-75
2022/10/20 14:36:02;;;;;;;;;0.80;0.80;;;;;;;;5048080;27;8894;-76
2022/10/20 14:38:36;;;;;;;;;2.00;1.00;;;;;;;;5040890;27;8998;-75
2022/10/20 14:41:06;;;;;;;;;0.60;0.60;;;;;;;;5045290;27;8873;-74
2022/10/20 14:43:39;;;;;;;;;1.00;1.00;;;;;;;;5046886;27;8829;-74
2022/10/20 14:46:11;;;;;;;;;1.00;1.00;;;;;;;;5048449;27;8847;-74
2022/10/20 14:48:42;;;;;;;;;2.00;0.80;;;;;;;;5049901;27;8863;-74
2022/10/20 14:51:43;;;;;;;;;1.00;1.00;;;;;;;;5051260;27;9009;-74
2022/10/20 14:54:34;;;;;;;;;1.20;0.80;;;;;;;;5066821;27;8854;-74
2022/10/20 14:57:18;;;;;;;;;1.60;1.60;;;;;;;;5032458;27;8833;-74
2022/10/20 14:59:51;;;;;;;;;0.80;0.00;;;;;;;;5057271;27;8837;-74
2022/10/20 15:02:21;;;;;;;;;0.80;0.80;;;;;;;;5052555;27;8885;-75
2022/10/20 15:04:52;;;;;;;;;0.00;0.00;;;;;;;;5045710;27;8853;-74
2022/10/20 15:07:23;;;;;;;;;1.00;1.00;;;;;;;;5041649;27;9736;-74
2022/10/20 15:09:52;;;;;;;;;0.80;0.80;;;;;;;;5047247;27;8831;-75